Apache Creek, New Mexico
Current Conditions -  °F | °C
As of 6:54 PM on Sunday 21 Dec 2014 (Local Time) from KSJN Reporting Station
Clear Clear  
Wind Chill: 36°   Ceiling: Unl
Heat Index: 39°   Visibility: 10mi
Dew Point: 31°   Wind: 5mph
Humidity: 73%   Direction: 200°SSW
Pressure: 30.03"   Gusts: NA
Location:  33.6665°N, 108.765°W
Report Text: KSJN 220154Z AUTO 20004KT 10SM CLR 04/M01 A3003 RMK AO2 SLP162 T00391006
Loading
Personal Weather Stations






























Interactive Weather Map New forecast layout! Learn more

10-Day Weather Forecast

Advertisements
Track Severe Weather on mobile